Time;durP1;ratioP1;P1;durP2;ratioP2;P2;SDS_P1;SDS_P2;PMS_P1;PMS_P2;Temp;Humidity;BMP_temperature;BMP_pressure;BME280_temperature;BME280_humidity;BME280_pressure;Samples;Min_cycle;Max_cycle;Signal;HPM_P1;HPM_P2
2023/07/17 00:01:12;;;;;;;2.72;1.10;;;17.00;99.90;;;;;;5094032;28;20047;-61
2023/07/17 00:03:38;;;;;;;1.35;0.77;;;17.00;99.90;;;;;;5093546;28;20036;-61
2023/07/17 00:06:04;;;;;;;3.00;0.80;;;17.10;99.90;;;;;;5094576;28;20071;-61
2023/07/17 00:08:30;;;;;;;2.40;1.00;;;17.00;99.90;;;;;;5092536;28;20034;-62
2023/07/17 00:10:58;;;;;;;3.40;1.45;;;17.00;99.90;;;;;;5093291;28;20028;-61
2023/07/17 00:13:24;;;;;;;0.63;0.55;;;17.00;99.90;;;;;;5093077;28;20048;-61
2023/07/17 00:15:49;;;;;;;3.63;1.25;;;17.00;99.90;;;;;;5092169;28;20042;-61
2023/07/17 00:18:15;;;;;;;2.97;1.38;;;17.00;99.90;;;;;;5094441;28;20114;-61
2023/07/17 00:20:41;;;;;;;3.20;1.50;;;17.00;99.90;;;;;;5076262;28;20485;-61
2023/07/17 00:23:07;;;;;;;4.75;1.13;;;17.00;99.90;;;;;;5106535;28;20298;-61
2023/07/17 00:25:33;;;;;;;2.00;0.88;;;17.00;99.90;;;;;;5074045;28;20052;-61
2023/07/17 00:27:58;;;;;;;2.70;1.10;;;17.00;99.90;;;;;;5073040;28;20067;-61
2023/07/17 00:30:24;;;;;;;2.72;1.58;;;17.00;99.90;;;;;;5105630;28;20044;-62
2023/07/17 00:32:50;;;;;;;2.50;1.00;;;17.00;99.90;;;;;;5072894;28;20048;-61
2023/07/17 00:35:15;;;;;;;1.25;0.70;;;17.00;99.90;;;;;;5064788;28;20481;-62
2023/07/17 00:37:45;;;;;;;1.38;0.75;;;17.00;99.90;;;;;;5089382;28;20393;-62
2023/07/17 00:40:12;;;;;;;2.38;1.17;;;17.00;99.90;;;;;;5127280;27;20040;-61
2023/07/17 00:42:38;;;;;;;4.43;1.85;;;17.00;99.90;;;;;;5075454;28;20032;-61
2023/07/17 00:45:05;;;;;;;1.48;0.98;;;17.00;99.90;;;;;;5092796;28;20040;-61
2023/07/17 00:47:32;;;;;;;5.57;1.42;;;17.00;99.90;;;;;;5092687;28;20118;-61
2023/07/17 00:49:58;;;;;;;5.15;2.00;;;17.00;99.90;;;;;;5074723;28;20064;-62
2023/07/17 00:52:24;;;;;;;2.30;1.25;;;17.00;99.90;;;;;;5091788;28;20485;-61
2023/07/17 00:54:51;;;;;;;4.72;1.40;;;16.90;99.90;;;;;;5126044;27;20090;-61
2023/07/17 00:57:19;;;;;;;2.05;1.05;;;16.90;99.90;;;;;;5091901;28;20102;-61
2023/07/17 00:59:45;;;;;;;2.75;1.35;;;16.90;99.90;;;;;;5092725;28;20044;-61
2023/07/17 01:02:13;;;;;;;2.20;1.33;;;16.90;99.90;;;;;;5092511;28;20051;-61
2023/07/17 01:04:44;;;;;;;0.82;0.60;;;16.90;99.90;;;;;;5092487;28;20028;-61
2023/07/17 01:07:10;;;;;;;0.98;0.80;;;16.80;99.90;;;;;;5092600;28;20081;-61
2023/07/17 01:09:35;;;;;;;1.35;0.77;;;16.80;99.90;;;;;;5093472;28;20040;-61
2023/07/17 01:12:01;;;;;;;1.27;0.85;;;16.80;99.90;;;;;;5108578;28;20131;-61
2023/07/17 01:14:28;;;;;;;0.65;0.40;;;16.70;99.90;;;;;;5093162;28;20621;-61
2023/07/17 01:16:54;;;;;;;1.48;0.77;;;16.80;99.90;;;;;;5093423;28;20040;-61
2023/07/17 01:19:20;;;;;;;1.55;0.80;;;16.70;99.90;;;;;;5092332;28;20043;-61
2023/07/17 01:21:53;;;;;;;1.13;0.50;;;16.60;99.90;;;;;;5093062;28;20115;-61
2023/07/17 01:24:19;;;;;;;1.25;1.15;;;16.60;99.90;;;;;;5091878;28;20048;-61
2023/07/17 01:26:45;;;;;;;1.05;0.60;;;16.50;99.90;;;;;;5092486;28;20040;-61
2023/07/17 01:29:11;;;;;;;1.10;0.63;;;16.50;99.90;;;;;;5091540;28;20377;-61
2023/07/17 01:31:38;;;;;;;0.68;0.43;;;16.50;99.90;;;;;;5091528;28;20044;-61
2023/07/17 01:34:04;;;;;;;0.28;0.20;;;16.40;99.90;;;;;;5092060;28;20499;-61
2023/07/17 01:36:30;;;;;;;1.48;0.90;;;16.40;99.90;;;;;;5092576;28;20044;-61
2023/07/17 01:38:55;;;;;;;3.10;1.65;;;16.40;99.90;;;;;;5092261;28;20028;-61
2023/07/17 01:41:23;;;;;;;1.75;1.35;;;16.40;99.90;;;;;;5091194;28;20036;-61
2023/07/17 01:43:49;;;;;;;2.60;1.58;;;16.30;99.90;;;;;;5092868;28;20036;-61
2023/07/17 01:46:15;;;;;;;1.65;0.90;;;16.20;99.90;;;;;;5092022;28;20032;-61
2023/07/17 01:48:41;;;;;;;2.22;0.77;;;16.30;99.90;;;;;;5125427;27;20366;-62
2023/07/17 01:51:06;;;;;;;0.25;0.25;;;16.20;99.90;;;;;;5092898;28;20058;-61
2023/07/17 01:53:33;;;;;;;1.08;0.60;;;16.20;99.90;;;;;;5090752;28;20056;-61
2023/07/17 01:56:00;;;;;;;1.65;0.60;;;16.20;99.90;;;;;;5092408;28;20032;-61
2023/07/17 01:58:26;;;;;;;1.92;1.10;;;16.20;99.90;;;;;;5091710;28;20063;-61
2023/07/17 02:00:56;;;;;;;1.10;0.73;;;16.20;99.90;;;;;;5091652;28;20040;-61
2023/07/17 02:03:22;;;;;;;0.98;0.60;;;16.20;99.90;;;;;;5092437;28;20046;-61
2023/07/17 02:05:50;;;;;;;8.90;2.05;;;16.20;99.90;;;;;;5092278;28;20075;-61
2023/07/17 02:08:16;;;;;;;6.53;1.67;;;16.10;99.90;;;;;;5090719;28;20040;-61
2023/07/17 02:10:49;;;;;;;8.18;2.45;;;16.10;99.90;;;;;;5074144;28;20044;-61
2023/07/17 02:13:14;;;;;;;9.07;1.85;;;16.10;99.90;;;;;;5087846;28;20119;-61
2023/07/17 02:15:40;;;;;;;6.57;1.77;;;16.10;99.90;;;;;;5091245;28;20568;-61
2023/07/17 02:18:07;;;;;;;4.22;1.70;;;16.10;99.90;;;;;;5074300;28;20166;-61
2023/07/17 02:20:33;;;;;;;4.90;1.98;;;16.00;99.90;;;;;;5092132;28;20515;-61
2023/07/17 02:22:59;;;;;;;2.35;0.90;;;16.10;99.90;;;;;;5107223;28;20044;-61
2023/07/17 02:25:24;;;;;;;8.32;1.35;;;16.10;99.90;;;;;;5125385;27;20047;-61
2023/07/17 02:27:51;;;;;;;5.03;1.20;;;16.00;99.90;;;;;;5124962;27;20067;-61
2023/07/17 02:30:17;;;;;;;2.60;1.02;;;16.10;99.90;;;;;;5091212;28;20043;-61
2023/07/17 02:32:44;;;;;;;3.92;1.23;;;16.10;99.90;;;;;;5090979;28;20044;-61
2023/07/17 02:35:10;;;;;;;2.33;1.05;;;16.10;99.90;;;;;;5085160;28;20032;-61
2023/07/17 02:37:36;;;;;;;4.30;1.30;;;16.10;99.90;;;;;;5072020;28;20087;-61
2023/07/17 02:40:10;;;;;;;3.60;1.20;;;16.10;99.90;;;;;;5070535;28;20040;-61
2023/07/17 02:42:36;;;;;;;6.65;1.48;;;16.10;99.90;;;;;;5071068;28;20493;-61
2023/07/17 02:45:03;;;;;;;8.10;1.67;;;16.20;99.90;;;;;;5088264;28;20047;-61
2023/07/17 02:47:29;;;;;;;1.52;0.70;;;16.10;99.90;;;;;;5091868;28;20043;-61
2023/07/17 02:49:55;;;;;;;6.28;1.40;;;16.10;99.90;;;;;;5090998;28;20056;-61
2023/07/17 02:52:20;;;;;;;8.10;1.63;;;16.20;99.90;;;;;;5092165;28;20068;-61
2023/07/17 02:54:46;;;;;;;1.77;1.10;;;16.10;99.90;;;;;;5091133;28;20565;-61
2023/07/17 02:57:13;;;;;;;1.80;0.90;;;16.10;99.90;;;;;;5069912;28;20041;-61
2023/07/17 02:59:39;;;;;;;9.52;2.25;;;16.10;99.90;;;;;;5087448;28;20041;-61
2023/07/17 03:02:05;;;;;;;10.43;2.30;;;16.10;99.90;;;;;;5070752;28;20032;-61
2023/07/17 03:04:31;;;;;;;16.88;2.28;;;16.00;99.90;;;;;;5103361;28;20512;-61
2023/07/17 03:06:57;;;;;;;4.13;1.63;;;16.00;99.90;;;;;;5079584;28;20389;-61
2023/07/17 03:09:22;;;;;;;7.38;2.40;;;16.00;99.90;;;;;;5090678;28;20040;-61
2023/07/17 03:11:48;;;;;;;8.77;2.22;;;15.90;99.90;;;;;;5091002;28;20032;-61
2023/07/17 03:14:14;;;;;;;7.63;2.50;;;15.90;99.90;;;;;;5124418;28;20481;-61
2023/07/17 03:16:40;;;;;;;5.88;2.05;;;15.90;99.90;;;;;;5092264;28;20086;-62
2023/07/17 03:19:06;;;;;;;8.02;1.75;;;15.90;99.90;;;;;;5094211;28;20040;-61
2023/07/17 03:21:32;;;;;;;11.20;3.08;;;15.80;99.90;;;;;;5094322;28;20564;-61
2023/07/17 03:23:58;;;;;;;10.32;2.88;;;15.90;99.90;;;;;;5111295;28;20063;-61
2023/07/17 03:26:24;;;;;;;9.38;2.75;;;15.90;99.90;;;;;;5094576;28;20043;-61
2023/07/17 03:28:49;;;;;;;6.63;2.50;;;15.80;99.90;;;;;;5128170;27;20046;-61
2023/07/17 03:31:15;;;;;;;8.98;2.92;;;15.80;99.90;;;;;;5128463;27;20044;-61
2023/07/17 03:33:41;;;;;;;5.97;2.20;;;15.70;99.90;;;;;;5093358;28;20043;-61
2023/07/17 03:36:06;;;;;;;4.30;2.05;;;15.70;99.90;;;;;;5095381;28;20431;-61
2023/07/17 03:38:32;;;;;;;5.63;2.33;;;15.80;99.90;;;;;;5127480;27;20470;-61
2023/07/17 03:40:58;;;;;;;5.47;2.60;;;15.80;99.90;;;;;;5094807;28;20043;-61
2023/07/17 03:43:23;;;;;;;10.02;3.05;;;15.70;99.90;;;;;;5093800;28;20492;-61
2023/07/17 03:45:52;;;;;;;7.95;2.78;;;15.70;99.90;;;;;;5092762;28;20076;-61
2023/07/17 03:48:18;;;;;;;12.45;3.30;;;15.70;99.90;;;;;;5127884;27;20086;-61
2023/07/17 03:50:44;;;;;;;5.72;2.53;;;15.70;99.90;;;;;;5094800;28;20055;-61
2023/07/17 03:53:10;;;;;;;12.57;2.85;;;15.70;99.90;;;;;;5093135;28;20044;-61
2023/07/17 03:55:37;;;;;;;10.50;3.00;;;15.70;99.90;;;;;;5094995;28;20047;-62
2023/07/17 03:58:04;;;;;;;9.85;2.67;;;15.70;99.90;;;;;;5093630;28;20036;-61
2023/07/17 04:00:30;;;;;;;7.68;2.58;;;15.70;99.90;;;;;;5094045;28;20057;-61
2023/07/17 04:02:56;;;;;;;8.85;2.72;;;15.60;99.90;;;;;;5127227;27;20115;-61
2023/07/17 04:05:21;;;;;;;8.52;2.28;;;15.70;99.90;;;;;;5127735;27;20044;-61
2023/07/17 04:07:47;;;;;;;5.82;2.25;;;15.70;99.90;;;;;;5109690;28;20492;-62
2023/07/17 04:10:12;;;;;;;6.00;2.67;;;15.70;99.90;;;;;;5094562;28;20374;-61
2023/07/17 04:12:38;;;;;;;11.88;3.58;;;15.70;99.90;;;;;;5127527;27;20036;-61
2023/07/17 04:15:04;;;;;;;13.77;3.88;;;15.70;99.90;;;;;;5126396;27;20050;-61
2023/07/17 04:17:30;;;;;;;6.93;3.30;;;15.70;99.90;;;;;;5093544;28;20370;-61
2023/07/17 04:19:56;;;;;;;8.52;3.03;;;15.70;99.90;;;;;;5094537;28;20043;-61
2023/07/17 04:22:21;;;;;;;10.10;3.30;;;15.70;99.90;;;;;;5126769;27;20036;-61
2023/07/17 04:24:47;;;;;;;13.15;3.00;;;15.70;99.90;;;;;;5094309;28;20040;-61
2023/07/17 04:27:12;;;;;;;8.98;3.08;;;15.70;99.90;;;;;;5093036;28;20132;-61
2023/07/17 04:29:38;;;;;;;10.30;3.65;;;15.80;99.90;;;;;;5093431;28;20039;-61
2023/07/17 04:32:04;;;;;;;7.28;3.08;;;15.80;99.90;;;;;;5094289;28;20115;-61
2023/07/17 04:34:31;;;;;;;11.05;2.58;;;15.90;99.90;;;;;;5076028;28;20400;-61
2023/07/17 04:36:57;;;;;;;8.18;3.17;;;15.90;99.90;;;;;;5091961;28;20051;-61
2023/07/17 04:39:23;;;;;;;8.13;3.20;;;15.90;99.90;;;;;;5076184;28;20397;-61
2023/07/17 04:41:49;;;;;;;9.95;2.92;;;16.00;99.90;;;;;;5092091;28;20040;-61
2023/07/17 04:44:15;;;;;;;12.00;2.38;;;16.00;99.90;;;;;;5092972;28;20519;-61
2023/07/17 04:46:40;;;;;;;6.50;2.30;;;16.00;99.90;;;;;;5092736;28;20043;-61
2023/07/17 04:49:07;;;;;;;9.90;2.67;;;16.10;99.90;;;;;;5093392;28;20062;-62
2023/07/17 04:51:32;;;;;;;10.35;3.10;;;16.10;99.90;;;;;;5093879;28;20141;-61
2023/07/17 04:53:58;;;;;;;9.38;2.70;;;16.20;99.90;;;;;;5075370;28;20080;-61
2023/07/17 04:56:24;;;;;;;7.38;2.97;;;16.20;99.90;;;;;;5091698;28;20082;-61
2023/07/17 04:58:50;;;;;;;6.43;2.55;;;16.20;99.90;;;;;;5092000;28;20131;-61
2023/07/17 05:01:15;;;;;;;11.65;3.75;;;16.30;99.90;;;;;;5093826;28;20028;-61
2023/07/17 05:03:41;;;;;;;9.65;2.42;;;16.30;99.90;;;;;;5091548;28;20061;-61
2023/07/17 05:06:07;;;;;;;17.15;3.50;;;16.30;99.90;;;;;;5092426;28;20072;-61
2023/07/17 05:08:32;;;;;;;9.05;2.58;;;16.30;99.90;;;;;;5093399;28;20093;-61
2023/07/17 05:10:59;;;;;;;11.75;3.05;;;16.20;99.90;;;;;;5091316;28;20127;-61
2023/07/17 05:13:26;;;;;;;17.60;3.83;;;16.30;99.90;;;;;;5075062;28;20472;-61
2023/07/17 05:15:52;;;;;;;12.23;3.17;;;16.30;99.90;;;;;;5091991;28;20560;-61
2023/07/17 05:18:18;;;;;;;6.60;2.67;;;16.40;99.90;;;;;;5092525;28;20531;-61
2023/07/17 05:20:45;;;;;;;14.85;3.78;;;16.50;99.90;;;;;;5092283;28;20054;-61
2023/07/17 05:23:11;;;;;;;8.15;2.45;;;16.50;99.90;;;;;;5092350;28;20052;-61
2023/07/17 05:25:37;;;;;;;5.63;3.10;;;16.60;99.90;;;;;;5090783;28;20047;-61
2023/07/17 05:28:04;;;;;;;14.48;3.60;;;16.80;99.90;;;;;;5092080;28;20123;-61
2023/07/17 05:30:32;;;;;;;7.07;2.80;;;16.90;99.90;;;;;;5091808;28;20054;-61
2023/07/17 05:32:58;;;;;;;16.20;3.80;;;17.10;99.90;;;;;;5090996;28;20528;-61
2023/07/17 05:35:24;;;;;;;15.63;3.25;;;17.20;99.90;;;;;;5093075;28;20115;-61
2023/07/17 05:37:49;;;;;;;9.98;2.90;;;17.30;99.90;;;;;;5091681;28;20491;-62
2023/07/17 05:40:15;;;;;;;10.38;3.42;;;17.30;99.90;;;;;;5073391;28;20112;-61
2023/07/17 05:42:41;;;;;;;13.48;3.50;;;17.30;99.90;;;;;;5092777;28;20044;-62
2023/07/17 05:45:07;;;;;;;11.35;3.22;;;17.30;99.90;;;;;;5092482;28;20038;-61
2023/07/17 05:47:33;;;;;;;12.73;3.92;;;17.20;99.90;;;;;;5091619;28;20169;-62
2023/07/17 05:49:59;;;;;;;6.95;2.97;;;17.20;99.90;;;;;;5092518;28;20164;-61
2023/07/17 05:52:24;;;;;;;5.72;3.17;;;17.20;99.90;;;;;;5090659;28;20051;-61
2023/07/17 05:54:50;;;;;;;8.27;3.30;;;17.10;99.90;;;;;;5125212;27;20122;-61
2023/07/17 05:57:16;;;;;;;3.58;1.75;;;17.00;99.90;;;;;;5091438;28;20443;-61
2023/07/17 05:59:41;;;;;;;4.07;1.42;;;16.80;99.90;;;;;;5090132;28;20072;-62
2023/07/17 06:02:07;;;;;;;3.97;1.70;;;16.50;99.90;;;;;;5108311;28;20043;-61
2023/07/17 06:04:32;;;;;;;2.35;1.23;;;16.40;99.90;;;;;;5125268;27;20043;-62
2023/07/17 06:06:58;;;;;;;3.10;1.40;;;16.20;99.90;;;;;;5074538;28;20044;-62
2023/07/17 06:09:24;;;;;;;2.20;1.35;;;16.10;99.90;;;;;;5122465;27;20166;-61
2023/07/17 06:11:49;;;;;;;2.08;0.95;;;16.00;99.90;;;;;;5088047;28;20059;-61
2023/07/17 06:14:15;;;;;;;4.93;1.15;;;16.00;99.90;;;;;;5088842;28;20401;-62
2023/07/17 06:16:41;;;;;;;7.60;3.97;;;15.90;99.90;;;;;;5087467;28;20437;-62
2023/07/17 06:19:06;;;;;;;5.90;2.92;;;15.90;99.90;;;;;;5116752;27;20048;-61
2023/07/17 06:21:33;;;;;;;8.73;2.95;;;15.90;99.90;;;;;;5078622;28;20444;-61
2023/07/17 06:23:58;;;;;;;5.32;3.60;;;15.90;99.90;;;;;;5088069;28;20097;-62
2023/07/17 06:26:24;;;;;;;4.13;2.53;;;15.90;99.90;;;;;;5121686;27;20083;-62
2023/07/17 06:28:50;;;;;;;2.45;1.27;;;16.00;99.90;;;;;;5086504;28;20115;-61
2023/07/17 06:31:16;;;;;;;3.78;1.88;;;16.00;99.90;;;;;;5089681;28;20066;-61
2023/07/17 06:33:42;;;;;;;7.43;2.38;;;15.90;99.90;;;;;;5089602;28;20051;-62
2023/07/17 06:36:07;;;;;;;3.42;1.33;;;15.90;99.90;;;;;;5069663;28;20043;-61
2023/07/17 06:38:33;;;;;;;2.22;1.35;;;15.80;99.90;;;;;;5089441;28;20028;-61
2023/07/17 06:40:59;;;;;;;3.80;1.05;;;15.80;99.90;;;;;;5071285;28;20043;-61
2023/07/17 06:43:24;;;;;;;1.75;1.08;;;15.90;99.90;;;;;;5087725;28;20113;-61
2023/07/17 06:45:50;;;;;;;2.20;0.90;;;15.80;99.90;;;;;;5087861;28;20098;-62
2023/07/17 06:48:16;;;;;;;5.85;2.42;;;15.90;99.90;;;;;;5087643;28;20453;-61
2023/07/17 06:50:41;;;;;;;6.15;2.17;;;16.00;99.90;;;;;;5071134;28;20056;-62
2023/07/17 06:53:07;;;;;;;4.50;2.08;;;16.20;99.90;;;;;;5092071;28;20083;-62
2023/07/17 06:55:33;;;;;;;3.20;1.95;;;16.50;99.90;;;;;;5091867;28;20036;-62
2023/07/17 06:57:58;;;;;;;5.07;1.88;;;16.70;99.90;;;;;;5092068;28;20048;-61
2023/07/17 07:00:24;;;;;;;4.97;1.80;;;17.00;99.90;;;;;;5092253;28;20047;-61
2023/07/17 07:02:50;;;;;;;7.13;3.33;;;17.20;99.90;;;;;;5092415;28;20028;-62
2023/07/17 07:05:15;;;;;;;3.75;1.23;;;17.40;99.90;;;;;;5092446;28;20468;-62
2023/07/17 07:07:41;;;;;;;4.10;1.55;;;17.40;99.90;;;;;;5091212;28;20036;-62
2023/07/17 07:10:07;;;;;;;3.97;2.50;;;17.50;99.90;;;;;;5091673;28;20047;-62
2023/07/17 07:12:33;;;;;;;4.20;1.98;;;17.40;99.90;;;;;;5075431;28;20044;-62
2023/07/17 07:14:59;;;;;;;5.22;2.03;;;17.40;99.90;;;;;;5093374;28;20347;-62
2023/07/17 07:17:24;;;;;;;4.82;1.38;;;17.20;99.90;;;;;;5073929;28;20067;-62
2023/07/17 07:19:51;;;;;;;4.05;1.50;;;17.20;99.90;;;;;;5093194;28;20039;-62
2023/07/17 07:22:17;;;;;;;9.27;1.73;;;17.30;99.90;;;;;;5091387;28;20051;-62
2023/07/17 07:24:45;;;;;;;5.93;2.15;;;17.50;99.90;;;;;;5073996;28;20043;-62
2023/07/17 07:27:10;;;;;;;3.17;1.30;;;17.70;99.90;;;;;;5091656;28;20087;-62
2023/07/17 07:29:36;;;;;;;4.68;1.48;;;17.90;99.90;;;;;;5090632;28;20500;-62
2023/07/17 07:32:02;;;;;;;5.07;1.38;;;18.10;99.90;;;;;;5090688;28;20052;-62
2023/07/17 07:34:28;;;;;;;3.45;1.50;;;18.20;99.90;;;;;;5091602;28;20562;-62
2023/07/17 07:36:53;;;;;;;3.15;1.50;;;18.20;99.90;;;;;;5089893;28;20032;-62
2023/07/17 07:39:19;;;;;;;4.68;1.92;;;18.30;99.90;;;;;;5090818;28;20044;-62
2023/07/17 07:41:45;;;;;;;4.35;1.90;;;18.30;99.90;;;;;;5090826;28;20043;-62
2023/07/17 07:44:11;;;;;;;12.38;1.80;;;18.30;99.90;;;;;;5091757;28;20036;-62
2023/07/17 07:46:36;;;;;;;2.88;1.25;;;18.40;99.90;;;;;;5091435;28;20737;-62
2023/07/17 07:49:03;;;;;;;3.40;1.45;;;18.50;99.90;;;;;;5090098;28;20055;-62
2023/07/17 07:51:29;;;;;;;5.55;1.75;;;18.50;99.90;;;;;;5091424;28;20151;-62
2023/07/17 07:53:56;;;;;;;5.32;2.50;;;18.60;99.90;;;;;;5089060;28;20050;-62
2023/07/17 07:56:21;;;;;;;5.53;2.53;;;18.50;99.90;;;;;;5089915;28;20126;-61
2023/07/17 07:58:48;;;;;;;4.30;1.83;;;18.60;99.90;;;;;;5123247;28;20070;-62
2023/07/17 08:01:14;;;;;;;2.72;1.30;;;18.60;99.90;;;;;;5072636;28;20044;-63
2023/07/17 08:03:40;;;;;;;3.40;1.50;;;18.50;99.90;;;;;;5108537;28;20556;-62
2023/07/17 08:06:06;;;;;;;7.07;2.78;;;18.60;99.90;;;;;;5053682;28;20087;-63
2023/07/17 08:08:33;;;;;;;7.50;2.22;;;18.60;99.90;;;;;;5088936;28;20122;-63
2023/07/17 08:18:21;;;;;;;2.65;1.52;;;18.50;99.90;;;;;;5089720;28;20076;-62
2023/07/17 08:20:47;;;;;;;3.83;1.70;;;18.40;99.90;;;;;;5087493;28;20044;-62
2023/07/17 08:23:12;;;;;;;6.28;1.65;;;18.40;99.90;;;;;;5089416;28;20051;-61
2023/07/17 08:25:38;;;;;;;3.08;1.17;;;18.50;99.90;;;;;;5122198;28;20361;-62
2023/07/17 08:28:04;;;;;;;3.20;1.40;;;18.60;99.90;;;;;;5089620;28;20067;-61
2023/07/17 08:30:30;;;;;;;3.55;1.63;;;18.60;99.90;;;;;;5090084;28;20031;-62
2023/07/17 08:32:55;;;;;;;3.92;1.38;;;18.70;99.90;;;;;;5089000;28;20043;-62
2023/07/17 08:35:21;;;;;;;3.40;1.63;;;18.70;99.90;;;;;;5088647;28;20093;-62
2023/07/17 08:37:46;;;;;;;3.47;1.77;;;18.80;99.90;;;;;;5086925;28;20425;-62
2023/07/17 08:40:12;;;;;;;9.15;3.10;;;18.90;99.90;;;;;;5089354;28;20096;-62
2023/07/17 08:42:45;;;;;;;3.20;1.58;;;18.90;99.90;;;;;;5087733;28;20081;-62
2023/07/17 08:45:12;;;;;;;3.88;1.50;;;19.00;99.90;;;;;;5074021;28;20051;-63
2023/07/17 08:47:38;;;;;;;7.07;1.65;;;19.00;99.90;;;;;;5091456;28;20044;-63
2023/07/17 08:50:06;;;;;;;3.95;1.42;;;19.10;99.90;;;;;;5050656;28;1152263;-62
2023/07/17 08:52:32;;;;;;;3.08;1.27;;;19.10;99.90;;;;;;5094099;28;20459;-63
2023/07/17 08:54:58;;;;;;;4.95;1.92;;;19.20;99.90;;;;;;5092055;28;20040;-61
2023/07/17 08:57:26;;;;;;;6.93;2.13;;;19.20;99.90;;;;;;5126295;27;20457;-62
2023/07/17 08:59:53;;;;;;;5.90;2.20;;;19.00;99.90;;;;;;5093464;28;20040;-62
2023/07/17 09:02:19;;;;;;;4.78;1.60;;;18.90;99.90;;;;;;5091400;28;20152;-62
2023/07/17 09:04:45;;;;;;;5.32;2.15;;;18.80;99.90;;;;;;5091730;28;20081;-61
2023/07/17 09:07:10;;;;;;;2.67;1.30;;;18.90;99.90;;;;;;5094071;28;20040;-61
2023/07/17 09:09:36;;;;;;;5.55;2.00;;;18.90;99.90;;;;;;5091525;28;20040;-62
2023/07/17 09:12:10;;;;;;;4.93;2.08;;;18.80;99.90;;;;;;5093434;28;20077;-62
2023/07/17 09:14:36;;;;;;;14.60;2.77;;;18.80;99.90;;;;;;5091065;28;20040;-63
2023/07/17 09:17:04;;;;;;;4.40;1.30;;;18.90;99.90;;;;;;5090070;28;20376;-63
2023/07/17 09:19:33;;;;;;;4.50;1.55;;;18.80;99.90;;;;;;5088333;28;20153;-62
2023/07/17 09:22:01;;;;;;;3.20;1.10;;;18.60;99.90;;;;;;5092373;28;20473;-62
2023/07/17 09:24:28;;;;;;;4.22;1.33;;;18.70;99.90;;;;;;5091085;28;20050;-62
2023/07/17 09:26:57;;;;;;;5.97;1.13;;;18.80;99.90;;;;;;5091883;28;20388;-62
2023/07/17 09:29:23;;;;;;;3.40;0.98;;;19.00;99.90;;;;;;5091918;28;20047;-62
2023/07/17 09:31:50;;;;;;;6.05;1.40;;;19.20;99.90;;;;;;5092535;28;20114;-62
2023/07/17 09:34:16;;;;;;;5.78;1.00;;;19.50;99.90;;;;;;5092872;28;20538;-62
2023/07/17 09:36:42;;;;;;;4.32;1.50;;;19.60;99.90;;;;;;5091742;28;20040;-62
2023/07/17 09:39:10;;;;;;;4.63;1.48;;;19.80;99.90;;;;;;5091530;28;20044;-62
2023/07/17 09:41:36;;;;;;;2.75;1.08;;;20.00;99.90;;;;;;5091648;28;20044;-62
2023/07/17 09:44:08;;;;;;;2.38;0.95;;;20.10;99.90;;;;;;5092680;28;20039;-62
2023/07/17 09:46:38;;;;;;;6.38;1.35;;;20.30;99.90;;;;;;5091625;28;20050;-62
2023/07/17 09:49:06;;;;;;;5.53;1.80;;;20.30;99.90;;;;;;5091215;28;20540;-62
2023/07/17 09:51:32;;;;;;;6.03;2.17;;;20.40;99.90;;;;;;5091068;28;20051;-62
2023/07/17 09:53:58;;;;;;;7.05;1.45;;;20.50;99.90;;;;;;5092762;28;20047;-62
2023/07/17 09:56:28;;;;;;;4.28;1.75;;;20.40;99.90;;;;;;5092643;28;20472;-62
2023/07/17 09:58:57;;;;;;;3.30;1.33;;;20.40;99.90;;;;;;5090575;28;20051;-62
2023/07/17 10:01:25;;;;;;;3.03;1.40;;;20.30;99.90;;;;;;5091251;28;20043;-62
2023/07/17 10:03:51;;;;;;;2.05;0.93;;;20.30;99.90;;;;;;5091561;28;20043;-62
2023/07/17 10:06:19;;;;;;;2.05;1.10;;;20.30;99.90;;;;;;5091711;28;20043;-62
2023/07/17 10:08:49;;;;;;;5.00;2.53;;;20.40;99.90;;;;;;5092553;28;20047;-62
2023/07/17 10:11:16;;;;;;;3.88;1.38;;;20.30;99.90;;;;;;5091188;28;20044;-62
2023/07/17 10:13:47;;;;;;;6.20;2.08;;;20.10;99.90;;;;;;5091709;28;20040;-62
2023/07/17 10:16:19;;;;;;;2.70;1.17;;;19.90;99.90;;;;;;5091103;28;20071;-62
2023/07/17 10:18:54;;;;;;;5.78;1.52;;;19.90;99.90;;;;;;5092386;28;20068;-62
2023/07/17 10:21:20;;;;;;;2.85;1.17;;;20.00;99.90;;;;;;5091508;28;20050;-62
2023/07/17 10:23:49;;;;;;;2.25;1.15;;;20.00;99.90;;;;;;5091033;28;20048;-62
2023/07/17 10:26:18;;;;;;;4.85;1.88;;;20.10;99.90;;;;;;5090640;28;20047;-62
2023/07/17 10:28:49;;;;;;;3.83;1.40;;;20.20;99.90;;;;;;5092268;28;20161;-62
2023/07/17 10:31:18;;;;;;;3.22;1.60;;;20.00;99.90;;;;;;5092095;28;20036;-62
2023/07/17 10:33:52;;;;;;;5.60;1.77;;;19.70;99.90;;;;;;5091436;28;20047;-62
2023/07/17 10:36:35;;;;;;;6.22;1.83;;;19.70;99.90;;;;;;5092420;28;20474;-62
2023/07/17 10:39:04;;;;;;;10.60;1.98;;;19.60;99.90;;;;;;5090993;28;20039;-62
2023/07/17 10:41:30;;;;;;;5.18;2.03;;;19.50;99.90;;;;;;5089942;28;20040;-62
2023/07/17 10:43:58;;;;;;;5.65;1.75;;;19.50;99.90;;;;;;5090939;28;20089;-62
2023/07/17 10:46:28;;;;;;;3.50;1.48;;;19.60;99.90;;;;;;5090692;28;20489;-62
2023/07/17 10:49:09;;;;;;;5.78;1.95;;;19.70;99.90;;;;;;5091227;28;20060;-62
2023/07/17 10:51:53;;;;;;;4.97;1.55;;;19.70;99.90;;;;;;5090890;28;20123;-62
2023/07/17 10:54:19;;;;;;;6.20;2.57;;;19.80;99.90;;;;;;5073970;28;20408;-62
2023/07/17 10:56:50;;;;;;;4.32;1.75;;;19.90;99.90;;;;;;5090109;28;20097;-62
2023/07/17 10:59:17;;;;;;;1.30;0.70;;;20.10;99.90;;;;;;5090806;28;20027;-62
2023/07/17 11:01:44;;;;;;;1.67;0.85;;;20.30;99.90;;;;;;5089719;28;20467;-62
2023/07/17 11:04:10;;;;;;;6.07;1.60;;;20.30;99.90;;;;;;5090859;28;20048;-62
2023/07/17 11:06:35;;;;;;;4.10;1.75;;;20.30;99.90;;;;;;5090787;28;20040;-62
2023/07/17 11:09:02;;;;;;;7.15;1.67;;;20.30;99.90;;;;;;5089717;28;20090;-62
2023/07/17 11:11:29;;;;;;;3.10;1.10;;;20.40;99.90;;;;;;5090475;28;20044;-63
2023/07/17 11:13:54;;;;;;;2.78;1.30;;;20.50;99.90;;;;;;5090307;28;20044;-62
2023/07/17 11:16:22;;;;;;;8.27;1.77;;;20.60;99.90;;;;;;5072981;28;20369;-62
2023/07/17 11:18:50;;;;;;;3.50;1.80;;;20.50;99.90;;;;;;5091795;28;20036;-62
2023/07/17 11:21:18;;;;;;;3.28;1.10;;;20.50;99.90;;;;;;5090428;28;20044;-62
2023/07/17 11:23:51;;;;;;;5.32;1.73;;;20.40;99.90;;;;;;5089505;28;20048;-62
2023/07/17 11:26:29;;;;;;;6.25;2.42;;;20.30;99.90;;;;;;5090757;28;20410;-62
2023/07/17 11:28:57;;;;;;;0.35;0.35;;;20.40;99.90;;;;;;5090343;28;20131;-61
2023/07/17 11:31:36;;;;;;;1.25;0.50;;;20.70;99.90;;;;;;5089643;28;20052;-62
2023/07/17 11:34:09;;;;;;;1.90;0.75;;;20.70;99.90;;;;;;5074020;28;20071;-62
2023/07/17 11:36:43;;;;;;;2.28;1.50;;;20.70;99.30;;;;;;5091113;28;20081;-62
2023/07/17 11:39:20;;;;;;;1.43;1.23;;;20.90;99.80;;;;;;5096141;28;20081;-62
2023/07/17 11:41:52;;;;;;;3.15;1.50;;;20.80;99.50;;;;;;5094096;28;20040;-62
2023/07/17 11:44:32;;;;;;;4.00;1.45;;;20.80;99.60;;;;;;5093159;28;20488;-61
2023/07/17 11:47:06;;;;;;;1.13;0.95;;;20.90;99.90;;;;;;5095165;28;20093;-61
2023/07/17 11:49:34;;;;;;;1.70;0.87;;;20.90;99.90;;;;;;5095028;28;20060;-62
2023/07/17 11:52:00;;;;;;;2.40;0.95;;;20.90;99.90;;;;;;5094567;28;20079;-61
2023/07/17 11:54:41;;;;;;;1.35;0.52;;;20.80;99.20;;;;;;5094986;28;20527;-61
2023/07/17 11:57:07;;;;;;;1.02;0.60;;;20.90;99.50;;;;;;5093936;28;20426;-62
2023/07/17 11:59:33;;;;;;;1.73;1.48;;;20.90;99.20;;;;;;5092806;28;20044;-61
2023/07/17 12:01:59;;;;;;;0.70;0.70;;;21.00;99.70;;;;;;5094952;28;20333;-61
2023/07/17 12:04:29;;;;;;;0.90;0.60;;;21.10;98.60;;;;;;5076933;28;20434;-61
2023/07/17 12:06:55;;;;;;;0.45;0.38;;;21.00;97.60;;;;;;5076029;28;20098;-61
2023/07/17 12:09:22;;;;;;;0.90;0.73;;;21.20;97.20;;;;;;5093406;28;20502;-62
2023/07/17 12:11:47;;;;;;;0.57;0.40;;;21.20;97.10;;;;;;5093717;28;20074;-62
2023/07/17 12:14:14;;;;;;;3.60;1.00;;;21.00;97.30;;;;;;5094415;28;20071;-62
2023/07/17 12:16:40;;;;;;;1.48;1.10;;;20.80;97.60;;;;;;5093698;28;20039;-62
2023/07/17 12:19:06;;;;;;;0.85;0.80;;;20.70;97.40;;;;;;5092814;28;20552;-62
2023/07/17 12:21:32;;;;;;;1.05;0.52;;;20.80;97.30;;;;;;5093306;28;20032;-62
2023/07/17 12:23:58;;;;;;;3.55;1.75;;;21.00;97.10;;;;;;5094432;28;20499;-61
2023/07/17 12:26:23;;;;;;;3.03;1.52;;;21.10;96.80;;;;;;5092435;28;20389;-62
2023/07/17 12:28:50;;;;;;;2.72;1.45;;;21.30;96.80;;;;;;5093039;28;20047;-62
2023/07/17 12:31:15;;;;;;;5.72;2.13;;;21.40;96.80;;;;;;5092997;28;20086;-62
2023/07/17 12:33:41;;;;;;;6.07;1.83;;;21.50;96.40;;;;;;5092093;28;20079;-63
2023/07/17 12:36:07;;;;;;;6.25;2.20;;;21.40;95.40;;;;;;5093412;28;20040;-62
2023/07/17 12:38:33;;;;;;;3.03;1.42;;;21.30;95.30;;;;;;5092954;28;20401;-61
2023/07/17 12:40:59;;;;;;;4.90;1.73;;;21.10;94.50;;;;;;5091761;28;20040;-62
2023/07/17 12:43:24;;;;;;;3.65;1.83;;;21.00;94.50;;;;;;5094225;28;20047;-62
2023/07/17 12:45:50;;;;;;;3.28;1.65;;;20.80;94.80;;;;;;5094163;28;20047;-62
2023/07/17 12:48:16;;;;;;;5.28;1.60;;;20.80;95.20;;;;;;5091140;28;20451;-62
2023/07/17 12:50:41;;;;;;;5.10;2.33;;;20.90;95.80;;;;;;5090938;28;20062;-62